Time;durP1;ratioP1;P1;durP2;ratioP2;P2;SDS_P1;SDS_P2;PMS_P1;PMS_P2;Temp;Humidity;BMP_temperature;BMP_pressure;BME280_temperature;BME280_humidity;BME280_pressure;Samples;Min_cycle;Max_cycle;Signal;HPM_P1;HPM_P2
2024/02/13 00:00:00;;;;;;;;;;;;;;;;;;4148617;28;19933;-55
2024/02/13 00:02:02;;;;;;;;;;;;;;;;;;4148558;28;19921;-55
2024/02/13 00:04:05;;;;;;;;;;;;;;;;;;4148312;28;20431;-54
2024/02/13 00:06:06;;;;;;;;;;;;;;;;;;4148599;28;19921;-55
2024/02/13 00:08:10;;;;;;;;;;;;;;;;;;4148488;28;19921;-55
2024/02/13 00:10:12;;;;;;;;;;;;;;;;;;4154480;28;19966;-55
2024/02/13 00:12:14;;;;;;;;;;;;;;;;;;4164828;28;19925;-55
2024/02/13 00:14:15;;;;;;;;;;;;;;;;;;4164691;28;19925;-55
2024/02/13 00:16:17;;;;;;;;;;;;;;;;;;4147229;28;19975;-54
2024/02/13 00:18:19;;;;;;;;;;;;;;;;;;4164395;28;19960;-54
2024/02/13 00:20:22;;;;;;;;;;;;;;;;;;4146945;28;20012;-56
2024/02/13 00:22:23;;;;;;;;;;;;;;;;;;4164591;28;20470;-54
2024/02/13 00:24:25;;;;;;;;;;;;;;;;;;4146524;28;19922;-55
2024/02/13 00:26:26;;;;;;;;;;;;;;;;;;4164739;28;19979;-55
2024/02/13 00:28:28;;;;;;;;;;;;;;;;;;4164469;28;19944;-55
2024/02/13 00:30:29;;;;;;;;;;;;;;;;;;4164610;28;20351;-55
2024/02/13 00:32:37;;;;;;;;;;;;;;;;;;4164550;28;19925;-55
2024/02/13 00:34:39;;;;;;;;;;;;;;;;;;4164449;28;19964;-54
2024/02/13 00:36:41;;;;;;;;;;;;;;;;;;4164676;28;19968;-54
2024/02/13 00:38:45;;;;;;;;;;;;;;;;;;4164938;28;19924;-55
2024/02/13 00:40:46;;;;;;;;;;;;;;;;;;4164572;28;19921;-52
2024/02/13 00:42:49;;;;;;;;;;;;;;;;;;4164453;28;19956;-54
2024/02/13 00:44:50;;;;;;;;;;;;;;;;;;4164135;28;20499;-54
2024/02/13 00:46:53;;;;;;;;;;;;;;;;;;4164277;28;20376;-54
2024/02/13 00:48:55;;;;;;;;;;;;;;;;;;4164363;28;19991;-54
2024/02/13 00:50:57;;;;;;;;;;;;;;;;;;4164303;28;20107;-54
2024/02/13 00:52:59;;;;;;;;;;;;;;;;;;4164569;28;19921;-54
2024/02/13 00:55:01;;;;;;;;;;;;;;;;;;4164552;28;19928;-57
2024/02/13 00:57:03;;;;;;;;;;;;;;;;;;4164308;28;20331;-58
2024/02/13 00:59:04;;;;;;;;;;;;;;;;;;4146945;28;19922;-57
2024/02/13 01:01:06;;;;;;;;;;;;;;;;;;4164391;28;20378;-57
2024/02/13 01:03:07;;;;;;;;;;;;;;;;;;4163979;28;19967;-58
2024/02/13 01:05:09;;;;;;;;;;;;;;;;;;4164351;28;19986;-58
2024/02/13 01:07:11;;;;;;;;;;;;;;;;;;4163899;28;19929;-54
2024/02/13 01:09:12;;;;;;;;;;;;;;;;;;4164225;28;20355;-54
2024/02/13 01:11:14;;;;;;;;;;;;;;;;;;4164236;28;19979;-54
2024/02/13 01:13:15;;;;;;;;;;;;;;;;;;4164141;28;19921;-54
2024/02/13 01:15:17;;;;;;;;;;;;;;;;;;4163949;28;19921;-55
2024/02/13 01:17:18;;;;;;;;;;;;;;;;;;4164171;28;19924;-54
2024/02/13 01:19:20;;;;;;;;;;;;;;;;;;4164106;28;20396;-55
2024/02/13 01:21:22;;;;;;;;;;;;;;;;;;4164152;28;20011;-53
2024/02/13 01:23:23;;;;;;;;;;;;;;;;;;4164341;28;19925;-54
2024/02/13 01:25:25;;;;;;;;;;;;;;;;;;4167074;28;19924;-54
2024/02/13 01:27:26;;;;;;;;;;;;;;;;;;4180473;28;19951;-53
2024/02/13 01:29:28;;;;;;;;;;;;;;;;;;4180424;28;19932;-55
2024/02/13 01:31:31;;;;;;;;;;;;;;;;;;4180457;28;20273;-56
2024/02/13 01:33:33;;;;;;;;;;;;;;;;;;4180412;28;19999;-55
2024/02/13 01:35:37;;;;;;;;;;;;;;;;;;4180988;28;19921;-52
2024/02/13 01:37:39;;;;;;;;;;;;;;;;;;4183662;28;20445;-55
2024/02/13 01:39:41;;;;;;;;;;;;;;;;;;4183786;28;19989;-54
2024/02/13 01:41:42;;;;;;;;;;;;;;;;;;4183494;28;20015;-54
2024/02/13 01:43:45;;;;;;;;;;;;;;;;;;4183408;28;19920;-54
2024/02/13 01:45:48;;;;;;;;;;;;;;;;;;4183148;28;19927;-54
2024/02/13 01:47:49;;;;;;;;;;;;;;;;;;4183686;28;20011;-55
2024/02/13 01:49:51;;;;;;;;;;;;;;;;;;4183335;28;20383;-52
2024/02/13 01:51:52;;;;;;;;;;;;;;;;;;4183683;28;20007;-53
2024/02/13 01:53:54;;;;;;;;;;;;;;;;;;4165566;28;20695;-53
2024/02/13 01:55:55;;;;;;;;;;;;;;;;;;4183261;28;19931;-52
2024/02/13 01:57:57;;;;;;;;;;;;;;;;;;4183351;28;19924;-55
2024/02/13 01:59:59;;;;;;;;;;;;;;;;;;4183637;28;19960;-54
2024/02/13 02:02:00;;;;;;;;;;;;;;;;;;4159836;28;19925;-52
2024/02/13 02:04:05;;;;;;;;;;;;;;;;;;4168804;28;19932;-54
2024/02/13 02:06:07;;;;;;;;;;;;;;;;;;4166766;28;19921;-58
2024/02/13 02:08:09;;;;;;;;;;;;;;;;;;4166715;28;19975;-58
2024/02/13 02:10:10;;;;;;;;;;;;;;;;;;4166492;28;19921;-57
2024/02/13 02:12:13;;;;;;;;;;;;;;;;;;4166567;28;19967;-58
2024/02/13 02:14:15;;;;;;;;;;;;;;;;;;4166577;28;19925;-59
2024/02/13 02:16:17;;;;;;;;;;;;;;;;;;4166543;28;19929;-57
2024/02/13 02:18:18;;;;;;;;;;;;;;;;;;4166684;28;19998;-57
2024/02/13 02:20:21;;;;;;;;;;;;;;;;;;4148841;28;19922;-57
2024/02/13 02:22:23;;;;;;;;;;;;;;;;;;4166411;28;19920;-57
2024/02/13 02:24:26;;;;;;;;;;;;;;;;;;4166472;28;19925;-58
2024/02/13 02:26:28;;;;;;;;;;;;;;;;;;4166400;28;20284;-58
2024/02/13 02:28:29;;;;;;;;;;;;;;;;;;4166461;28;19944;-57
2024/02/13 02:30:31;;;;;;;;;;;;;;;;;;4166338;28;20016;-57
2024/02/13 02:32:32;;;;;;;;;;;;;;;;;;4166185;28;19925;-59
2024/02/13 02:34:34;;;;;;;;;;;;;;;;;;4166360;28;19920;-58
2024/02/13 02:36:36;;;;;;;;;;;;;;;;;;4166147;28;19951;-57
2024/02/13 02:38:38;;;;;;;;;;;;;;;;;;4164257;28;20452;-58
2024/02/13 02:40:40;;;;;;;;;;;;;;;;;;4165901;28;19932;-58
2024/02/13 02:42:41;;;;;;;;;;;;;;;;;;4166139;28;20340;-57
2024/02/13 02:44:43;;;;;;;;;;;;;;;;;;4165556;28;20269;-57
2024/02/13 02:46:45;;;;;;;;;;;;;;;;;;4165643;28;19939;-58
2024/02/13 02:48:46;;;;;;;;;;;;;;;;;;4166247;28;19972;-57
2024/02/13 02:50:48;;;;;;;;;;;;;;;;;;4165960;28;19921;-58
2024/02/13 02:52:49;;;;;;;;;;;;;;;;;;4166037;28;19928;-58
2024/02/13 02:54:51;;;;;;;;;;;;;;;;;;4165941;28;20286;-58
2024/02/13 02:56:53;;;;;;;;;;;;;;;;;;4165943;28;19955;-58
2024/02/13 02:58:55;;;;;;;;;;;;;;;;;;4167640;28;19925;-58
2024/02/13 03:00:57;;;;;;;;;;;;;;;;;;4166353;28;20273;-58
2024/02/13 03:02:58;;;;;;;;;;;;;;;;;;4147822;28;19921;-58
2024/02/13 03:05:01;;;;;;;;;;;;;;;;;;4165768;28;20289;-58
2024/02/13 03:07:03;;;;;;;;;;;;;;;;;;4165586;28;20008;-58
2024/02/13 03:09:05;;;;;;;;;;;;;;;;;;4165630;28;19925;-56
2024/02/13 03:11:06;;;;;;;;;;;;;;;;;;4165250;28;20024;-58
2024/02/13 03:13:08;;;;;;;;;;;;;;;;;;4165632;28;19928;-58
2024/02/13 03:15:12;;;;;;;;;;;;;;;;;;4165548;28;20005;-57
2024/02/13 03:17:13;;;;;;;;;;;;;;;;;;4165732;28;20269;-53
2024/02/13 03:19:15;;;;;;;;;;;;;;;;;;4165443;28;19921;-54
2024/02/13 03:21:17;;;;;;;;;;;;;;;;;;4165533;28;19925;-55
2024/02/13 03:23:18;;;;;;;;;;;;;;;;;;4147859;28;20320;-54
2024/02/13 03:25:20;;;;;;;;;;;;;;;;;;4165399;28;19928;-54
2024/02/13 03:27:21;;;;;;;;;;;;;;;;;;4164916;28;19921;-54
2024/02/13 03:29:23;;;;;;;;;;;;;;;;;;4164385;28;19932;-53
2024/02/13 03:31:24;;;;;;;;;;;;;;;;;;4163845;28;19921;-54
2024/02/13 03:33:26;;;;;;;;;;;;;;;;;;4164127;28;19921;-54
2024/02/13 03:35:27;;;;;;;;;;;;;;;;;;4164620;28;19921;-55
2024/02/13 03:37:29;;;;;;;;;;;;;;;;;;4147659;28;19961;-54
2024/02/13 03:39:30;;;;;;;;;;;;;;;;;;4164947;28;20293;-55
2024/02/13 03:41:32;;;;;;;;;;;;;;;;;;4164876;28;20379;-55
2024/02/13 03:43:34;;;;;;;;;;;;;;;;;;4147481;28;19925;-54
2024/02/13 03:45:35;;;;;;;;;;;;;;;;;;4165012;28;20361;-54
2024/02/13 03:47:37;;;;;;;;;;;;;;;;;;4165135;28;19963;-54
2024/02/13 03:49:38;;;;;;;;;;;;;;;;;;4165064;28;19921;-54
2024/02/13 03:51:40;;;;;;;;;;;;;;;;;;4165005;28;19921;-54
2024/02/13 03:53:43;;;;;;;;;;;;;;;;;;4165233;28;19951;-53
2024/02/13 03:55:45;;;;;;;;;;;;;;;;;;4167336;28;20444;-53
2024/02/13 03:57:46;;;;;;;;;;;;;;;;;;4164828;28;20050;-54
2024/02/13 03:59:47;;;;;;;;;;;;;;;;;;4164484;28;19925;-54
2024/02/13 04:01:49;;;;;;;;;;;;;;;;;;4164728;28;19931;-54
2024/02/13 04:03:50;;;;;;;;;;;;;;;;;;4164508;28;19921;-54
2024/02/13 04:05:52;;;;;;;;;;;;;;;;;;4147293;28;20788;-53
2024/02/13 04:07:54;;;;;;;;;;;;;;;;;;4164826;28;19921;-55
2024/02/13 04:09:55;;;;;;;;;;;;;;;;;;4147076;28;20019;-54
2024/02/13 04:11:57;;;;;;;;;;;;;;;;;;4164671;28;19921;-54
2024/02/13 04:13:58;;;;;;;;;;;;;;;;;;4164763;28;19921;-53
2024/02/13 04:16:00;;;;;;;;;;;;;;;;;;4164681;28;19952;-55
2024/02/13 04:18:02;;;;;;;;;;;;;;;;;;4164529;28;20206;-54
2024/02/13 04:20:04;;;;;;;;;;;;;;;;;;4164596;28;19971;-55
2024/02/13 04:22:06;;;;;;;;;;;;;;;;;;4147193;28;19975;-54
2024/02/13 04:24:07;;;;;;;;;;;;;;;;;;4164938;28;19921;-54
2024/02/13 04:26:09;;;;;;;;;;;;;;;;;;4164445;28;19975;-54
2024/02/13 04:28:22;;;;;;;;;;;;;;;;;;4149074;28;19921;-53
2024/02/13 04:30:24;;;;;;;;;;;;;;;;;;4146945;28;19932;-54
2024/02/13 04:32:26;;;;;;;;;;;;;;;;;;4164463;28;19932;-55
2024/02/13 04:34:30;;;;;;;;;;;;;;;;;;4164473;28;19920;-53
2024/02/13 04:36:32;;;;;;;;;;;;;;;;;;4164486;28;19933;-55
2024/02/13 04:38:34;;;;;;;;;;;;;;;;;;4164637;28;19932;-54
2024/02/13 04:40:36;;;;;;;;;;;;;;;;;;4164542;28;20373;-54
2024/02/13 04:42:38;;;;;;;;;;;;;;;;;;4164309;28;19924;-54
2024/02/13 04:44:39;;;;;;;;;;;;;;;;;;4164211;28;19925;-54
2024/02/13 04:46:41;;;;;;;;;;;;;;;;;;4164390;28;19924;-53
2024/02/13 04:48:43;;;;;;;;;;;;;;;;;;4164299;28;20425;-55
2024/02/13 04:50:45;;;;;;;;;;;;;;;;;;4164315;28;20019;-54
2024/02/13 04:52:47;;;;;;;;;;;;;;;;;;4166827;28;20296;-55
2024/02/13 04:54:48;;;;;;;;;;;;;;;;;;4146771;28;19956;-54
2024/02/13 04:56:50;;;;;;;;;;;;;;;;;;4164307;28;19928;-55
2024/02/13 04:58:55;;;;;;;;;;;;;;;;;;4164054;28;19921;-55
2024/02/13 05:01:05;;;;;;;;;;;;;;;;;;4164210;28;20368;-55
2024/02/13 05:03:27;;;;;;;;;;;;;;;;;;4164018;28;19936;-53
2024/02/13 05:07:50;;;;;;;;;;;;;;;;;;4147826;28;19925;-55
2024/02/13 05:09:53;;;;;;;;;;;;;;;;;;4148319;28;19948;-54
2024/02/13 05:11:54;;;;;;;;;;;;;;;;;;4150681;28;20347;-56
2024/02/13 05:13:56;;;;;;;;;;;;;;;;;;4167142;28;20377;-54
2024/02/13 05:16:01;;;;;;;;;;;;;;;;;;4167229;28;19925;-54
2024/02/13 05:18:04;;;;;;;;;;;;;;;;;;4167408;28;19929;-54
2024/02/13 05:20:11;;;;;;;;;;;;;;;;;;4167348;28;20388;-54
2024/02/13 05:22:13;;;;;;;;;;;;;;;;;;4167282;28;19932;-55
2024/02/13 05:24:14;;;;;;;;;;;;;;;;;;4167340;28;19921;-54
2024/02/13 05:26:17;;;;;;;;;;;;;;;;;;4165450;28;19967;-55
2024/02/13 05:28:20;;;;;;;;;;;;;;;;;;4157508;28;19928;-55
2024/02/13 05:30:22;;;;;;;;;;;;;;;;;;4154582;28;20410;-53
2024/02/13 05:32:24;;;;;;;;;;;;;;;;;;4158422;28;20347;-54
2024/02/13 05:34:25;;;;;;;;;;;;;;;;;;4161689;28;20265;-55
2024/02/13 05:36:27;;;;;;;;;;;;;;;;;;4164658;28;19957;-54
2024/02/13 05:38:28;;;;;;;;;;;;;;;;;;4164248;28;19925;-58
2024/02/13 05:40:30;;;;;;;;;;;;;;;;;;4166965;28;20369;-58
2024/02/13 05:42:31;;;;;;;;;;;;;;;;;;4167091;28;19971;-57
2024/02/13 05:44:33;;;;;;;;;;;;;;;;;;4165907;28;19928;-55
2024/02/13 05:46:34;;;;;;;;;;;;;;;;;;4165558;28;20024;-58
2024/02/13 05:48:36;;;;;;;;;;;;;;;;;;4166545;28;19921;-56
2024/02/13 05:50:37;;;;;;;;;;;;;;;;;;4166652;28;19979;-58
2024/02/13 05:52:39;;;;;;;;;;;;;;;;;;4149158;28;19922;-59
2024/02/13 05:54:41;;;;;;;;;;;;;;;;;;4166560;28;19925;-58
2024/02/13 05:56:44;;;;;;;;;;;;;;;;;;4166605;28;19929;-58
2024/02/13 05:58:45;;;;;;;;;;;;;;;;;;4166709;28;20011;-58
2024/02/13 06:00:47;;;;;;;;;;;;;;;;;;4159134;28;19989;-58
2024/02/13 06:02:49;;;;;;;;;;;;;;;;;;4162401;28;19921;-58
2024/02/13 06:04:51;;;;;;;;;;;;;;;;;;4181196;28;19925;-57
2024/02/13 06:06:53;;;;;;;;;;;;;;;;;;4183118;28;19928;-57
2024/02/13 06:08:54;;;;;;;;;;;;;;;;;;4183020;28;20019;-58
2024/02/13 06:10:58;;;;;;;;;;;;;;;;;;4182790;28;20368;-58
2024/02/13 06:13:00;;;;;;;;;;;;;;;;;;4176936;28;20364;-58
2024/02/13 06:15:01;;;;;;;;;;;;;;;;;;4175200;28;20392;-57
2024/02/13 06:17:03;;;;;;;;;;;;;;;;;;4171189;28;19955;-58
2024/02/13 06:19:05;;;;;;;;;;;;;;;;;;4168999;28;19925;-58
2024/02/13 06:21:07;;;;;;;;;;;;;;;;;;4149455;28;19925;-58
2024/02/13 06:23:08;;;;;;;;;;;;;;;;;;4149416;28;19921;-58
2024/02/13 06:25:11;;;;;;;;;;;;;;;;;;4149594;28;20004;-64
2024/02/13 06:27:12;;;;;;;;;;;;;;;;;;4149877;28;19921;-63
2024/02/13 06:29:14;;;;;;;;;;;;;;;;;;4149955;28;19925;-64
2024/02/13 06:31:16;;;;;;;;;;;;;;;;;;4149646;28;19925;-64
2024/02/13 06:33:17;;;;;;;;;;;;;;;;;;4152802;28;19925;-64
2024/02/13 06:35:19;;;;;;;;;;;;;;;;;;4161248;28;19925;-63
2024/02/13 06:37:21;;;;;;;;;;;;;;;;;;4166256;28;20020;-64
2024/02/13 06:39:25;;;;;;;;;;;;;;;;;;4148489;28;20422;-64
2024/02/13 06:41:27;;;;;;;;;;;;;;;;;;4161404;28;19921;-64
2024/02/13 06:43:29;;;;;;;;;;;;;;;;;;4166263;28;19971;-64
2024/02/13 06:45:30;;;;;;;;;;;;;;;;;;4165466;28;19975;-63
2024/02/13 06:47:32;;;;;;;;;;;;;;;;;;4166123;28;19921;-58
2024/02/13 06:49:34;;;;;;;;;;;;;;;;;;4165047;28;20305;-59
2024/02/13 06:51:36;;;;;;;;;;;;;;;;;;4165263;28;20296;-58
2024/02/13 06:53:38;;;;;;;;;;;;;;;;;;4166172;28;19921;-58
2024/02/13 06:55:40;;;;;;;;;;;;;;;;;;4148186;28;19972;-58
2024/02/13 06:57:41;;;;;;;;;;;;;;;;;;4165799;28;19975;-58
2024/02/13 06:59:43;;;;;;;;;;;;;;;;;;4165796;28;19925;-58
2024/02/13 07:01:44;;;;;;;;;;;;;;;;;;4148234;28;20008;-58
2024/02/13 07:03:46;;;;;;;;;;;;;;;;;;4165468;28;19921;-58
2024/02/13 07:05:47;;;;;;;;;;;;;;;;;;4165612;28;20258;-58
2024/02/13 07:07:49;;;;;;;;;;;;;;;;;;4165494;28;19928;-58
2024/02/13 07:09:52;;;;;;;;;;;;;;;;;;4165674;28;20273;-58
2024/02/13 07:11:54;;;;;;;;;;;;;;;;;;4165724;28;19925;-58
2024/02/13 07:13:56;;;;;;;;;;;;;;;;;;4147942;28;20397;-58
2024/02/13 07:15:57;;;;;;;;;;;;;;;;;;4165571;28;20003;-58
2024/02/13 07:17:58;;;;;;;;;;;;;;;;;;4162866;28;20380;-58
2024/02/13 07:20:02;;;;;;;;;;;;;;;;;;4143102;28;19925;-58
2024/02/13 07:22:03;;;;;;;;;;;;;;;;;;4146801;28;19925;-58
2024/02/13 07:24:05;;;;;;;;;;;;;;;;;;4165980;28;19967;-58
2024/02/13 07:26:06;;;;;;;;;;;;;;;;;;4159097;28;19975;-58
2024/02/13 07:28:08;;;;;;;;;;;;;;;;;;4164300;28;19979;-57
2024/02/13 07:30:13;;;;;;;;;;;;;;;;;;4165390;28;19921;-58
2024/02/13 07:32:14;;;;;;;;;;;;;;;;;;4147831;28;19932;-58
2024/02/13 07:34:18;;;;;;;;;;;;;;;;;;4146191;28;20013;-58
2024/02/13 07:36:19;;;;;;;;;;;;;;;;;;4146886;28;20016;-58
2024/02/13 07:38:21;;;;;;;;;;;;;;;;;;4162381;28;19961;-59
2024/02/13 07:40:22;;;;;;;;;;;;;;;;;;4157964;28;19925;-58
2024/02/13 07:42:25;;;;;;;;;;;;;;;;;;4165096;28;19928;-58
2024/02/13 07:44:27;;;;;;;;;;;;;;;;;;4163525;28;19925;-58
2024/02/13 07:46:29;;;;;;;;;;;;;;;;;;4164301;28;20369;-57
2024/02/13 07:48:31;;;;;;;;;;;;;;;;;;4165281;28;19924;-58
2024/02/13 07:50:35;;;;;;;;;;;;;;;;;;4161166;28;19920;-58
2024/02/13 07:52:36;;;;;;;;;;;;;;;;;;4157507;28;20380;-59
2024/02/13 07:54:39;;;;;;;;;;;;;;;;;;4162089;28;19925;-58
2024/02/13 07:56:41;;;;;;;;;;;;;;;;;;4164042;28;20257;-57
2024/02/13 07:58:44;;;;;;;;;;;;;;;;;;4165319;28;19929;-58
2024/02/13 08:00:46;;;;;;;;;;;;;;;;;;4159552;28;19929;-58
2024/02/13 08:02:48;;;;;;;;;;;;;;;;;;4157231;28;19975;-58
2024/02/13 08:04:51;;;;;;;;;;;;;;;;;;4152920;28;19952;-58
2024/02/13 08:06:53;;;;;;;;;;;;;;;;;;4160068;28;19921;-58
2024/02/13 08:09:54;;;;;;;27.60;23.85;;;;;;;;;;4207412;27;20163;-58
2024/02/13 08:11:56;;;;;;;91.10;41.95;;;;;;;;;;4195804;28;20072;-59
2024/02/13 08:13:57;;;;;;;181.88;49.15;;;;;;;;;;4188927;28;20076;-57
2024/02/13 08:15:59;;;;;;;145.82;47.95;;;;;;;;;;4196289;28;20041;-57
2024/02/13 08:18:01;;;;;;;49.00;44.97;;;;;;;;;;4204307;28;20066;-58
2024/02/13 08:20:08;;;;;;;46.47;43.58;;;;;;;;;;4211434;28;20040;-58
2024/02/13 08:22:10;;;;;;;43.75;40.80;;;;;;;;;;4200600;28;20045;-58
2024/02/13 08:24:12;;;;;;;43.83;41.38;;;;;;;;;;4194617;28;20052;-58
2024/02/13 08:26:14;;;;;;;41.65;39.58;;;;;;;;;;4186922;28;20049;-58
2024/02/13 08:28:16;;;;;;;39.28;37.38;;;;;;;;;;4193557;28;20037;-58
2024/02/13 08:30:18;;;;;;;37.13;35.60;;;;;;;;;;4196715;28;20033;-58
2024/02/13 08:32:20;;;;;;;36.50;34.70;;;;;;;;;;4195154;28;20076;-59
2024/02/13 08:34:22;;;;;;;42.03;39.33;;;;;;;;;;4201993;28;20031;-58
2024/02/13 08:36:24;;;;;;;43.70;41.20;;;;;;;;;;4191108;28;20282;-58
2024/02/13 08:38:26;;;;;;;39.53;37.78;;;;;;;;;;4201377;28;20068;-59
2024/02/13 08:40:28;;;;;;;39.03;36.40;;;;;;;;;;4198555;28;20086;-58
2024/02/13 08:42:34;;;;;;;37.92;36.17;;;;;;;;;;4193841;28;20090;-58
2024/02/13 08:44:35;;;;;;;39.67;38.03;;;;;;;;;;4195312;28;20404;-58
2024/02/13 08:46:37;;;;;;;36.23;34.93;;;;;;;;;;4193719;28;20044;-58
2024/02/13 08:48:39;;;;;;;35.55;34.15;;;;;;;;;;4187091;28;20291;-58
2024/02/13 08:50:41;;;;;;;32.50;31.50;;;;;;;;;;4190542;28;20041;-58
2024/02/13 08:52:43;;;;;;;34.97;33.33;;;;;;;;;;4190094;28;20525;-58
2024/02/13 08:54:46;;;;;;;33.33;32.30;;;;;;;;;;4176534;28;20791;-60
2024/02/13 08:56:47;;;;;;;43.50;40.45;;;;;;;;;;4197546;28;20289;-58
2024/02/13 08:58:52;;;;;;;36.85;35.10;;;;;;;;;;4193557;28;20079;-58
2024/02/13 09:00:54;;;;;;;38.40;36.45;;;;;;;;;;4198148;28;20052;-57
2024/02/13 09:02:57;;;;;;;41.17;39.20;;;;;;;;;;4193719;28;20052;-58
2024/02/13 09:04:59;;;;;;;39.63;37.63;;;;;;;;;;4193507;28;20686;-58
2024/02/13 09:07:00;;;;;;;38.17;36.47;;;;;;;;;;4193716;28;20053;-62
2024/02/13 09:09:03;;;;;;;34.78;33.50;;;;;;;;;;4195859;28;20292;-61
2024/02/13 09:11:05;;;;;;;;;;;;;;;;;;4189211;28;20459;-61
2024/02/13 09:13:06;;;;;;;35.28;34.03;;;;;;;;;;4180989;28;19931;-61
2024/02/13 09:15:11;;;;;;;36.83;35.53;;;;;;;;;;4194912;28;20039;-61
2024/02/13 09:17:13;;;;;;;33.00;32.03;;;;;;;;;;4170649;28;20119;-61
2024/02/13 09:19:15;;;;;;;30.90;29.77;;;;;;;;;;4191350;28;20098;-61
2024/02/13 09:21:17;;;;;;;34.33;33.33;;;;;;;;;;4184465;28;20053;-61
2024/02/13 09:23:19;;;;;;;30.80;29.70;;;;;;;;;;4184613;28;20041;-61
2024/02/13 09:25:21;;;;;;;33.80;32.88;;;;;;;;;;4184420;28;20053;-61
2024/02/13 09:27:23;;;;;;;33.50;31.83;;;;;;;;;;4181821;28;20045;-62
2024/02/13 09:29:25;;;;;;;31.42;30.42;;;;;;;;;;4180934;28;20287;-61
2024/02/13 09:31:27;;;;;;;31.27;30.37;;;;;;;;;;4179943;28;20041;-60
2024/02/13 09:33:28;;;;;;;31.15;30.10;;;;;;;;;;4180911;28;20076;-61
2024/02/13 09:35:30;;;;;;;31.52;30.63;;;;;;;;;;4178732;28;20041;-61
2024/02/13 09:37:32;;;;;;;28.05;27.35;;;;;;;;;;4182719;28;20354;-61
2024/02/13 09:39:33;;;;;;;30.93;30.10;;;;;;;;;;4179565;28;20539;-61
2024/02/13 09:41:36;;;;;;;26.70;25.90;;;;;;;;;;4178069;28;20079;-61
2024/02/13 09:43:37;;;;;;;;;;;;;;;;;;4165876;28;20076;-61
2024/02/13 09:45:45;;;;;;;28.27;27.13;;;;;;;;;;4184090;28;19920;-61
2024/02/13 09:47:48;;;;;;;26.95;25.85;;;;;;;;;;4184520;28;20512;-61
2024/02/13 09:49:51;;;;;;;23.48;22.67;;;;;;;;;;4185008;28;20063;-60
2024/02/13 09:51:53;;;;;;;23.00;21.83;;;;;;;;;;4165163;28;20045;-61
2024/02/13 09:53:55;;;;;;;22.13;21.40;;;;;;;;;;4177684;28;20045;-61
2024/02/13 09:55:58;;;;;;;27.87;26.57;;;;;;;;;;4170224;28;20536;-61
2024/02/13 09:58:00;;;;;;;19.55;19.02;;;;;;;;;;4181203;28;20295;-61
2024/02/13 10:00:02;;;;;;;16.80;16.15;;;;;;;;;;4182190;28;20467;-61
2024/02/13 10:02:05;;;;;;;15.90;15.60;;;;;;;;;;4187152;28;20137;-62
2024/02/13 10:04:07;;;;;;;13.60;13.45;;;;;;;;;;4189082;28;20075;-60
2024/02/13 10:06:10;;;;;;;12.23;11.90;;;;;;;;;;4177375;28;20068;-62
2024/02/13 10:08:13;;;;;;;11.70;11.50;;;;;;;;;;4177381;28;20059;-61
2024/02/13 10:10:15;;;;;;;11.52;11.32;;;;;;;;;;4164001;28;20044;-61
2024/02/13 10:12:17;;;;;;;9.73;9.55;;;;;;;;;;4180118;28;20038;-61
2024/02/13 10:14:20;;;;;;;8.50;8.40;;;;;;;;;;4175709;28;20603;-61
2024/02/13 10:16:23;;;;;;;9.05;8.85;;;;;;;;;;4181668;28;20043;-62
2024/02/13 10:18:25;;;;;;;7.68;7.47;;;;;;;;;;4180935;28;20415;-61
2024/02/13 10:20:27;;;;;;;7.07;6.97;;;;;;;;;;4179817;28;20045;-61
2024/02/13 10:22:30;;;;;;;7.27;7.03;;;;;;;;;;4181013;28;20045;-60
2024/02/13 10:24:32;;;;;;;7.68;7.40;;;;;;;;;;4182010;28;20053;-61
2024/02/13 10:26:34;;;;;;;5.70;5.50;;;;;;;;;;4180393;28;20037;-62
2024/02/13 10:28:40;;;;;;;7.32;7.10;;;;;;;;;;4179683;28;20052;-61
2024/02/13 10:30:48;;;;;;;7.60;7.15;;;;;;;;;;4175198;28;20099;-61
2024/02/13 10:32:49;;;;;;;6.57;6.47;;;;;;;;;;4179250;28;20548;-61
2024/02/13 10:34:52;;;;;;;6.13;6.07;;;;;;;;;;4181697;28;20032;-61
2024/02/13 10:36:54;;;;;;;9.18;9.00;;;;;;;;;;4184400;28;20033;-62
2024/02/13 10:39:00;;;;;;;8.35;8.25;;;;;;;;;;4150068;28;20042;-62
2024/02/13 10:41:03;;;;;;;8.65;8.55;;;;;;;;;;4183516;28;20048;-61
2024/02/13 10:43:07;;;;;;;8.40;8.10;;;;;;;;;;4187227;28;20085;-62
2024/02/13 10:45:11;;;;;;;6.32;6.32;;;;;;;;;;4174211;28;20496;-62
2024/02/13 10:47:15;;;;;;;5.18;5.07;;;;;;;;;;4173042;28;20045;-61
2024/02/13 10:49:17;;;;;;;5.43;5.43;;;;;;;;;;4174086;28;20045;-60
2024/02/13 10:51:19;;;;;;;4.93;4.82;;;;;;;;;;4176442;28;20051;-61
2024/02/13 10:53:21;;;;;;;4.65;4.55;;;;;;;;;;4160678;28;20030;-61
2024/02/13 10:55:23;;;;;;;6.03;5.82;;;;;;;;;;4163008;28;20128;-62
2024/02/13 10:57:26;;;;;;;4.78;4.68;;;;;;;;;;4174747;28;20047;-61
2024/02/13 10:59:30;;;;;;;4.15;4.07;;;;;;;;;;4174152;28;20090;-61
2024/02/13 11:01:35;;;;;;;4.05;3.83;;;;;;;;;;4177634;28;20076;-62
2024/02/13 11:03:38;;;;;;;3.47;3.47;;;;;;;;;;4169515;28;20068;-62
2024/02/13 11:05:40;;;;;;;3.60;3.60;;;;;;;;;;4183484;28;20041;-61
2024/02/13 11:07:43;;;;;;;4.95;4.95;;;;;;;;;;4172006;28;20072;-61
2024/02/13 11:09:45;;;;;;;4.15;4.15;;;;;;;;;;4175856;28;20058;-61
2024/02/13 11:11:46;;;;;;;3.42;3.25;;;;;;;;;;4176902;28;20041;-62
2024/02/13 11:13:51;;;;;;;3.90;3.90;;;;;;;;;;4178227;28;20064;-61
2024/02/13 11:15:56;;;;;;;3.40;3.40;;;;;;;;;;4179243;28;20029;-61
2024/02/13 11:18:00;;;;;;;3.13;3.13;;;;;;;;;;4179821;28;20124;-61
2024/02/13 11:20:06;;;;;;;2.50;2.50;;;;;;;;;;4180109;28;20052;-60
2024/02/13 11:22:08;;;;;;;3.33;3.33;;;;;;;;;;4156634;28;20049;-61
2024/02/13 11:24:18;;;;;;;4.10;4.10;;;;;;;;;;4181556;28;20103;-62
2024/02/13 11:26:20;;;;;;;4.60;4.60;;;;;;;;;;4179403;28;20039;-61
2024/02/13 11:28:22;;;;;;;4.95;4.90;;;;;;;;;;4180626;28;20535;-58
2024/02/13 11:30:24;;;;;;;3.90;3.80;;;;;;;;;;4163067;28;20135;-60
2024/02/13 11:32:28;;;;;;;3.05;3.00;;;;;;;;;;4175585;28;20456;-58
2024/02/13 11:34:44;;;;;;;3.00;3.00;;;;;;;;;;4175913;28;20029;-58
2024/02/13 11:36:49;;;;;;;3.60;3.50;;;;;;;;;;4176532;28;20068;-59
2024/02/13 11:38:56;;;;;;;3.15;3.15;;;;;;;;;;4162289;28;20439;-59
2024/02/13 11:40:58;;;;;;;2.90;2.90;;;;;;;;;;4170351;28;20475;-58
2024/02/13 11:43:01;;;;;;;3.40;3.40;;;;;;;;;;4181642;28;20029;-58
2024/02/13 11:45:03;;;;;;;2.58;2.58;;;;;;;;;;4178721;28;20048;-59
2024/02/13 11:47:06;;;;;;;2.22;2.13;;;;;;;;;;4179996;28;20037;-58
2024/02/13 11:49:12;;;;;;;4.00;2.90;;;;;;;;;;4186764;28;20040;-59
2024/02/13 11:51:15;;;;;;;1.73;1.73;;;;;;;;;;4178578;28;20527;-59
2024/02/13 11:53:17;;;;;;;2.28;2.28;;;;;;;;;;4177716;28;20044;-58
2024/02/13 11:55:20;;;;;;;1.67;1.67;;;;;;;;;;4162311;28;20091;-58
2024/02/13 11:57:24;;;;;;;1.70;1.70;;;;;;;;;;4174959;28;20072;-58
2024/02/13 11:59:27;;;;;;;1.95;1.95;;;;;;;;;;4162008;28;20092;-58
2024/02/13 12:01:30;;;;;;;1.98;1.98;;;;;;;;;;4179186;28;20040;-59
2024/02/13 12:03:33;;;;;;;2.00;2.00;;;;;;;;;;4183153;28;20080;-58
2024/02/13 12:05:34;;;;;;;1.77;1.77;;;;;;;;;;4175973;28;20041;-59
2024/02/13 12:07:37;;;;;;;1.50;1.50;;;;;;;;;;4163882;28;20037;-59
2024/02/13 12:09:40;;;;;;;1.60;1.60;;;;;;;;;;4163808;28;20528;-59
2024/02/13 12:11:43;;;;;;;1.67;1.67;;;;;;;;;;4171372;28;20071;-59
2024/02/13 12:13:46;;;;;;;5.15;5.05;;;;;;;;;;4174900;28;20037;-59
2024/02/13 12:15:48;;;;;;;2.50;2.50;;;;;;;;;;4177761;28;20033;-59
2024/02/13 12:17:54;;;;;;;1.60;1.60;;;;;;;;;;4176961;28;20039;-59
2024/02/13 12:19:56;;;;;;;1.40;1.40;;;;;;;;;;4179832;28;20472;-59
2024/02/13 12:22:04;;;;;;;3.95;3.63;;;;;;;;;;4180019;28;20040;-59
2024/02/13 12:24:08;;;;;;;1.52;1.52;;;;;;;;;;4180309;28;20123;-59
2024/02/13 12:26:10;;;;;;;1.90;1.80;;;;;;;;;;4180188;28;20047;-59
2024/02/13 12:28:12;;;;;;;1.40;1.40;;;;;;;;;;4173912;28;20041;-58
2024/02/13 12:30:14;;;;;;;1.88;1.88;;;;;;;;;;4168527;28;20091;-59
2024/02/13 12:32:16;;;;;;;1.45;1.42;;;;;;;;;;4179681;28;20043;-59
2024/02/13 12:34:22;;;;;;;1.50;1.48;;;;;;;;;;4179316;28;20029;-58
2024/02/13 12:36:24;;;;;;;1.10;1.10;;;;;;;;;;4175826;28;20073;-59
2024/02/13 12:38:27;;;;;;;1.10;1.10;;;;;;;;;;4180502;28;20041;-59
2024/02/13 12:40:31;;;;;;;1.20;1.20;;;;;;;;;;4146144;28;20128;-60
2024/02/13 12:42:33;;;;;;;1.48;1.20;;;;;;;;;;4161743;28;20045;-58
2024/02/13 12:44:36;;;;;;;1.10;1.10;;;;;;;;;;4169754;28;20049;-58
2024/02/13 12:46:38;;;;;;;1.20;1.20;;;;;;;;;;4170638;28;20048;-59
2024/02/13 12:48:42;;;;;;;1.20;1.20;;;;;;;;;;4160125;28;20054;-58
2024/02/13 12:50:44;;;;;;;1.20;1.20;;;;;;;;;;4162371;28;20128;-59
2024/02/13 12:52:46;;;;;;;1.20;1.20;;;;;;;;;;4180077;28;20045;-58
2024/02/13 12:54:49;;;;;;;1.30;1.30;;;;;;;;;;4179890;28;20041;-60
2024/02/13 12:56:52;;;;;;;1.20;1.20;;;;;;;;;;4183114;28;20489;-59
2024/02/13 12:58:54;;;;;;;1.10;1.10;;;;;;;;;;4181629;28;20037;-59
2024/02/13 13:00:58;;;;;;;1.58;1.20;;;;;;;;;;4182231;28;20056;-60
2024/02/13 13:02:59;;;;;;;1.20;1.20;;;;;;;;;;4180845;28;20045;-60
2024/02/13 13:05:02;;;;;;;1.42;1.33;;;;;;;;;;4182286;28;20132;-59
2024/02/13 13:07:05;;;;;;;1.20;1.20;;;;;;;;;;4182797;28;20052;-59
2024/02/13 13:09:10;;;;;;;1.38;1.38;;;;;;;;;;4181294;28;20063;-59
2024/02/13 13:11:28;;;;;;;1.20;1.20;;;;;;;;;;4181709;28;20033;-59